Latest Coastal Weather Observations for Lady Elliot Island

IDQ60701

Issued at 2:42 pm EST Friday 21 July 2017 (issued every 10 minutes, with the page automatically refreshed every 10 minutes)

About coastal observations | Map of coastal stations | Coastal observations for QLD | Marine services | Other Formats
Station Details ID: 039059 Name: LADY ELLIOT ISLAND Lat: -24.11 Lon: 152.72 Height: 3.6 m
Data from the previous 72 hours. | See also: Recent months at Lady Elliot Island
Date/Time
EST
Temp
°C
Wind Pressure Rain since
9am
mm
Weather Cloud Vis
km
Sea
Height
m
Swell
Dir  Spd
kts
Gust
kts
hPa Trend Height
m
Period
s
Dir
21/02:30pm 20.2 S 10 15 1016.5 - 0.0 - - - - - - -
21/02:00pm 19.7 S 11 16 1016.6 - 0.0 - - - - - - -
21/01:30pm 19.6 SSW 11 15 1017.2 - 0.0 - - - - - - -
21/01:00pm 19.3 SSW 11 15 1017.8 - 0.0 - - - - - - -
21/12:30pm 18.9 SW 10 14 1018.4 - 0.0 - - - - - - -
21/12:00pm 19.0 SW 11 15 1019.0 - 0.0 - - - - - - -
21/11:30am 18.6 SW 11 17 1019.4 - 0.0 - - - - - - -
21/11:00am 18.6 SSW 12 17 1019.6 - 0.0 - - - - - - -
21/10:30am 18.5 SSW 11 15 1019.7 - 0.0 - - - - - - -
21/10:00am 18.4 SW 10 15 1020.0 - 0.0 - - - - - - -
21/09:30am 17.6 SW 11 16 1019.8 - 0.0 - - - - - - -
21/09:00am 17.3 SW 10 15 1019.8 - 0.0 - - - - - - -
21/08:30am 17.4 SW 12 19 1019.9 - 0.0 - - - - - - -
21/08:00am 16.9 SW 12 17 1019.5 - 0.0 - - - - - - -
21/07:30am 16.7 SW 11 17 1018.9 - 0.0 - - - - - - -
21/07:00am 16.2 SW 10 15 1018.5 - 0.0 - - - - - - -
21/06:30am 16.0 SW 12 17 1018.2 - 0.0 - - - - - - -
21/06:00am 16.1 SW 12 17 1018.3 - 0.0 - - - - - - -
21/05:30am 16.2 SW 12 18 1018.2 - 0.0 - - - - - - -
21/05:00am 16.4 SW 12 17 1017.7 - 0.0 - - - - - - -
21/04:30am 16.7 SW 11 18 1017.7 - 0.0 - - - - - - -
21/04:00am 16.8 SSW 11 16 1017.3 - 0.0 - - - - - - -
21/03:30am 16.9 SSW 10 14 1017.0 - 0.0 - - - - - - -
21/03:00am 17.5 SW 9 14 1017.0 - 0.0 - - - - - - -
21/02:30am 17.4 SSW 9 15 1016.7 - 0.0 - - - - - - -
21/02:00am 17.5 SSW 10 14 1016.8 - 0.0 - - - - - - -
21/01:30am 18.0 SSW 9 13 1016.9 - 0.0 - - - - - - -
21/01:00am 17.8 SSW 9 14 1017.1 - 0.0 - - - - - - -
21/12:30am 18.2 SSW 9 14 1017.5 - 0.0 - - - - - - -
21/12:00am 18.4 SSW 8 11 1017.4 - 0.0 - - - - - - -
 
Date/Time
EST
Temp
°C
Wind Pressure Rain since
9am
mm
Weather Cloud Vis
km
Sea
Height
m
Swell
Dir  Spd
kts
Gust
kts
hPa Trend Height
m
Period
s
Dir
20/11:30pm 18.6 SSW 9 13 1017.2 - 0.0 - - - - - - -
20/11:00pm 18.8 SW 9 13 1017.3 - 0.0 - - - - - - -
20/10:30pm 18.7 SSW 9 15 1017.4 - 0.0 - - - - - - -
20/10:00pm 19.1 SSW 10 14 1017.5 - 0.0 - - - - - - -
20/09:30pm 19.4 SSW 11 17 1017.4 - 0.0 - - - - - - -
20/09:00pm 19.5 SSW 10 14 1017.4 - 0.0 - - - - - - -
20/08:30pm 18.7 SSW 9 14 1017.3 - 0.0 - - - - - - -
20/08:27pm 18.7 SSW 9 14 1017.2 - 0.0 - - - - - - -
20/08:00pm 13.7 SSW 3 5 1017.3 - 0.0 - - - - - - -
20/07:30pm 14.0 SSW 3 5 1017.4 - 0.0 - - - - - - -
20/07:00pm 16.3 SSW 4 6 1017.2 - 0.0 - - - - - - -
20/06:30pm 17.0 S 4 6 1016.7 - 0.0 - - - - - - -
20/06:00pm 17.8 S 5 7 1016.2 - 0.0 - - - - - - -
20/05:30pm 18.1 S 5 7 1015.9 - 0.0 - - - - - - -
20/05:00pm 18.4 S 5 8 1015.6 - 0.0 - - - - - - -
20/04:30pm 19.0 SSW 7 10 1015.3 - 0.0 - - - - - - -
20/04:00pm 19.4 SSW 8 11 1015.3 - 0.0 - - - - - - -
20/03:30pm 19.3 S 8 12 1015.5 - 0.0 - - - - - - -
20/03:00pm 19.7 SSW 9 14 1015.6 - 0.0 - - - - - - -
20/02:30pm 19.4 SSW 10 12 1015.6 - 0.0 - - - - - - -
20/02:00pm 19.4 SSW 11 16 1016.1 - 0.0 - - - - - - -
20/01:30pm 19.1 SSW 10 14 1016.5 - 0.0 - - - - - - -
20/01:00pm 19.1 SSW 12 17 1016.6 - 0.0 - - - - - - -
20/12:30pm 18.8 SSW 13 19 1017.0 - 0.0 - - - - - - -
20/12:00pm 18.5 SSW 16 21 1017.2 - 0.0 - - - - - - -
20/11:30am 18.4 SSW 12 16 1018.5 - 0.0 - - - - - - -
20/11:00am 17.8 SSW 13 18 1018.6 - 0.0 - - - - - - -
20/10:30am 17.4 SSW 14 19 1018.9 - 0.0 - - - - - - -
20/10:00am 16.9 S 17 23 1018.6 - 0.0 - - - - - - -
20/09:30am 16.9 SSW 19 26 1018.6 - 0.0 - - - - - - -
20/09:00am 16.8 SSW 19 26 1018.6 - 0.0 - - - - - - -
20/08:30am 16.1 SSW 20 30 1018.5 - 0.0 - - - - - - -
20/08:22am 16.1 SSW 20 30 1018.5 - 0.0 - - - - - - -
20/08:00am 16.3 SSW 18 27 1018.8 - 0.0 - - - - - - -
20/07:43am 16.1 SSW 20 30 1018.6 - 0.0 - - - - - - -
20/07:30am 15.9 SSW 20 29 1018.5 - 0.0 - - - - - - -
20/07:22am 16.0 SSW 18 28 1018.5 - 0.0 - - - - - - -
20/07:00am 15.9 SSW 21 28 1018.3 - 0.0 - - - - - - -
20/06:30am 15.7 SSW 18 29 1018.0 - 0.0 - - - - - - -
20/06:00am 16.0 SSW 20 31 1017.3 - 0.0 - - - - - - -
20/05:33am 16.1 SSW 18 27 1016.8 - 0.0 - - - - - - -
20/05:30am 15.9 SSW 18 27 1016.8 - 0.0 - - - - - - -
20/05:09am 16.3 SSW 20 31 1016.1 - 0.0 - - - - - - -
20/05:00am 16.2 SSW 22 29 1016.1 - 0.0 - - - - - - -
20/04:30am 16.3 SSW 18 26 1016.0 - 0.0 - - - - - - -
20/04:14am 16.4 SSW 18 28 1016.1 - 0.0 - - - - - - -
20/04:00am 16.5 SSW 20 29 1016.0 - 0.0 - - - - - - -
20/03:39am 16.8 SSW 20 31 1016.0 - 0.0 - - - - - - -
20/03:30am 16.8 SSW 20 29 1015.8 - 0.0 - - - - - - -
20/03:09am 16.8 SSW 21 31 1015.7 - 0.0 - - - - - - -
20/03:00am 16.6 SSW 20 27 1015.7 - 0.0 - - - - - - -
20/02:32am 16.7 SSW 21 33 1015.5 - 0.0 - - - - - - -
20/02:30am 16.6 SSW 21 29 1015.5 - 0.0 - - - - - - -
20/02:04am 17.0 SSW 19 29 1015.6 - 0.0 - - - - - - -
20/02:00am 17.0 SSW 20 29 1015.6 - 0.0 - - - - - - -
20/01:30am 17.3 SSW 17 29 1016.0 - 0.0 - - - - - - -
20/01:10am 17.5 SSW 19 29 1016.1 - 0.0 - - - - - - -
20/01:00am 17.6 SSW 20 27 1016.1 - 0.0 - - - - - - -
20/12:30am 18.1 SW 17 25 1016.0 - 0.0 - - - - - - -
20/12:00am 18.7 SW 16 27 1016.2 - 0.0 - - - - - - -
 
Date/Time
EST
Temp
°C
Wind Pressure Rain since
9am
mm
Weather Cloud Vis
km
Sea
Height
m
Swell
Dir  Spd
kts
Gust
kts
hPa Trend Height
m
Period
s
Dir
19/11:30pm 19.1 SW 17 28 1016.6 - 0.0 - - - - - - -
19/11:00pm 19.4 SW 17 29 1016.4 - 0.0 - - - - - - -
19/10:34pm 19.4 SW 15 27 1016.2 - 0.0 - - - - - - -
19/10:30pm 19.4 SW 15 23 1016.3 - 0.0 - - - - - - -
19/10:00pm 19.5 SW 14 24 1016.4 - 0.0 - - - - - - -
19/09:30pm 19.7 SW 15 23 1016.4 - 0.0 - - - - - - -
19/09:15pm 19.8 SW 15 26 1016.5 - 0.0 - - - - - - -
19/09:00pm 19.8 SW 14 20 1016.4 - 0.0 - - - - - - -
19/08:30pm 19.9 SW 13 22 1016.3 - 0.0 - - - - - - -
19/08:00pm 20.3 SW 15 22 1016.1 - 0.0 - - - - - - -
19/07:30pm 20.5 SW 16 23 1015.7 - 0.0 - - - - - - -
19/07:00pm 20.9 SW 13 20 1015.0 - 0.0 - - - - - - -
19/06:30pm 21.1 SW 13 21 1014.6 - 0.0 - - - - - - -
19/06:00pm 21.3 SW 14 22 1013.7 - 0.0 - - - - - - -
19/05:30pm 21.3 SW 12 17 1013.2 - 0.0 - - - - - - -
19/05:00pm 21.7 SW 13 20 1012.8 - 0.0 - - - - - - -
19/04:30pm 22.3 SW 13 20 1012.3 - 0.0 - - - - - - -
19/04:00pm 22.6 SW 12 19 1012.0 - 0.0 - - - - - - -
19/03:30pm 22.5 SSW 11 15 1011.9 - 0.0 - - - - - - -
19/03:00pm 22.9 SW 12 17 1011.7 - 0.0 - - - - - - -
19/02:30pm 22.8 SW 11 17 1011.7 - 0.0 - - - - - - -
19/02:00pm 23.0 SW 11 16 1011.5 - 0.0 - - - - - - -
19/01:30pm 23.4 SW 10 14 1011.8 - 0.0 - - - - - - -
19/01:00pm 23.2 SW 10 15 1012.2 - 0.0 - - - - - - -
19/12:30pm 23.0 SW 9 16 1012.7 - 0.0 - - - - - - -
19/12:00pm 22.8 SW 10 14 1013.2 - 0.0 - - - - - - -
19/11:30am 22.8 SW 10 14 1013.9 - 0.0 - - - - - - -
19/11:00am 22.5 SW 11 15 1014.2 - 0.0 - - - - - - -
19/10:30am 22.6 SW 12 19 1014.5 - 0.0 - - - - - - -
19/10:00am 22.6 SW 13 19 1014.8 - 0.0 - - - - - - -
19/09:30am 21.9 W 11 18 1014.9 - 0.0 - - - - - - -
19/09:00am 22.6 WNW 14 20 1014.7 - 0.0 - - - - - - -
19/08:30am 21.8 WNW 11 17 1014.7 - 0.0 - - - - - - -
19/08:00am 21.5 W 11 17 1014.6 - 0.0 - - - - - - -
19/07:30am 21.1 W 11 17 1014.6 - 0.0 - - - - - - -
19/07:00am 21.3 W 11 16 1014.5 - 0.0 - - - - - - -
19/06:30am 21.6 W 11 18 1014.3 - 0.0 - - - - - - -
19/06:00am 21.8 WNW 14 20 1014.0 - 0.0 - - - - - - -
19/05:30am 21.7 NW 15 18 1013.2 - 0.0 - - - - - - -
19/05:00am 21.6 NW 14 19 1013.1 - 0.0 - - - - - - -
19/04:30am 21.6 NW 14 18 1013.2 - 0.0 - - - - - - -
19/04:00am 21.7 NW 13 18 1013.4 - 0.0 - - - - - - -
19/03:30am 21.8 NW 13 18 1013.5 - 0.0 - - - - - - -
19/03:00am 21.7 NW 8 13 1013.6 - 0.0 - - - - - - -
19/02:30am 21.8 NNW 9 13 1013.9 - 0.0 - - - - - - -
19/02:00am 22.0 NNW 11 15 1014.4 - 0.0 - - - - - - -
19/01:30am 21.9 NNW 9 15 1014.8 - 0.0 - - - - - - -
19/01:00am 21.8 NNW 12 15 1015.3 - 0.0 - - - - - - -
19/12:30am 21.9 N 10 13 1015.6 - 0.0 - - - - - - -
19/12:00am 21.9 N 7 11 1015.7 - 0.0 - - - - - - -
 
Date/Time
EST
Temp
°C
Wind Pressure Rain since
9am
mm
Weather Cloud Vis
km
Sea
Height
m
Swell
Dir  Spd
kts
Gust
kts
hPa Trend Height
m
Period
s
Dir
18/11:30pm 22.0 N 5 9 1016.2 - 0.0 - - - - - - -
18/11:00pm 22.0 N 7 10 1016.3 - 0.0 - - - - - - -
18/10:30pm 22.1 N 8 10 1016.8 - 0.0 - - - - - - -
18/10:00pm 22.2 N 6 8 1017.1 - 0.0 - - - - - - -
18/09:30pm 22.0 N 7 11 1017.2 - 0.0 - - - - - - -
18/09:00pm 22.2 N 8 13 1017.1 - 0.0 - - - - - - -
18/08:30pm 22.1 N 7 10 1017.2 - 0.0 - - - - - - -
18/08:00pm 22.5 NNE 5 7 1017.1 - 0.0 - - - - - - -
18/07:30pm 22.4 N 4 6 1017.3 - 0.0 - - - - - - -
18/07:00pm 22.3 NNE 4 6 1017.0 - 0.0 - - - - - - -
18/06:30pm 21.9 NNE 3 5 1016.9 - 0.0 - - - - - - -
18/06:00pm 21.7 NNE 3 6 1016.7 - 0.0 - - - - - - -
18/05:30pm 21.9 NE 2 5 1016.5 - 0.0 - - - - - - -
18/05:00pm 22.6 NNE 4 7 1016.3 - 0.0 - - - - - - -
18/04:30pm 23.6 NE 4 7 1016.4 - 0.0 - - - - - - -
18/04:00pm 23.7 NNE 5 7 1016.2 - 0.0 - - - - - - -
18/03:30pm 24.3 NE 3 6 1016.4 - 0.0 - - - - - - -
18/03:00pm 24.3 NE 4 5 1016.7 - 0.0 - - - - - - -

Other Formats:

Comma delimited format used in spreadsheet applications
http://www.bom.gov.au/fwo/IDQ60701/IDQ60701.94388.axf

JavaScript Object Notation format (JSON) in row-major order
http://www.bom.gov.au/fwo/IDQ60701/IDQ60701.94388.json